createdAt,value
2023-02-03T00:02:00.114Z,6.05
2023-02-03T00:04:26.899Z,5.82
2023-02-03T00:06:53.747Z,6.03
2023-02-03T00:09:21.306Z,6.05
2023-02-03T00:11:48.293Z,6.47
2023-02-03T00:14:15.292Z,7.40
2023-02-03T00:16:42.170Z,7.88
2023-02-03T00:19:09.000Z,6.40
2023-02-03T00:21:35.852Z,8.55
2023-02-03T00:24:02.652Z,6.32
2023-02-03T00:26:29.631Z,6.00
2023-02-03T00:28:56.426Z,6.28
2023-02-03T00:31:25.086Z,14.48
2023-02-03T00:33:57.604Z,8.90
2023-02-03T00:36:26.915Z,7.10
2023-02-03T00:38:54.301Z,6.95
2023-02-03T00:41:21.976Z,4.45
2023-02-03T00:43:49.620Z,7.22
2023-02-03T00:46:16.683Z,4.72
2023-02-03T00:48:43.904Z,8.30
2023-02-03T00:51:10.742Z,4.85
2023-02-03T00:53:37.649Z,4.68
2023-02-03T00:56:04.711Z,3.80
2023-02-03T00:58:31.525Z,6.30
2023-02-03T01:00:58.500Z,5.25
2023-02-03T01:03:25.410Z,5.68
2023-02-03T01:05:52.323Z,5.30
2023-02-03T01:08:19.200Z,5.03
2023-02-03T01:10:45.997Z,6.03
2023-02-03T01:13:12.873Z,6.68
2023-02-03T01:15:48.143Z,4.22
2023-02-03T01:18:15.317Z,6.53
2023-02-03T01:20:42.137Z,7.32
2023-02-03T01:23:08.871Z,5.95
2023-02-03T01:25:36.253Z,4.50
2023-02-03T01:28:03.180Z,4.78
2023-02-03T01:30:30.159Z,4.68
2023-02-03T01:32:57.433Z,4.97
2023-02-03T01:35:24.205Z,6.20
2023-02-03T01:37:50.973Z,6.22
2023-02-03T01:40:18.855Z,5.70
2023-02-03T01:42:45.608Z,5.47
2023-02-03T01:45:13.546Z,4.90
2023-02-03T01:47:58.625Z,6.45
2023-02-03T01:50:31.774Z,6.43
2023-02-03T01:53:07.047Z,5.93
2023-02-03T01:55:40.770Z,5.28
2023-02-03T01:58:25.759Z,4.68
2023-02-03T02:00:54.237Z,6.47
2023-02-03T02:03:27.379Z,5.80
2023-02-03T02:06:05.340Z,4.45
2023-02-03T02:08:33.475Z,5.18
2023-02-03T02:11:01.079Z,5.97
2023-02-03T02:13:32.652Z,3.78
2023-02-03T02:16:32.656Z,5.15
2023-02-03T02:19:45.904Z,3.60
2023-02-03T02:22:43.615Z,5.18
2023-02-03T02:25:46.773Z,4.68
2023-02-03T02:28:52.373Z,3.55
2023-02-03T02:32:25.670Z,4.75
2023-02-03T02:34:58.499Z,4.10
2023-02-03T02:38:01.592Z,5.63
2023-02-03T02:40:55.627Z,4.00
2023-02-03T02:43:39.526Z,3.70
2023-02-03T02:46:19.389Z,4.15
2023-02-03T02:49:09.534Z,3.38
2023-02-03T02:51:39.855Z,2.63
2023-02-03T02:54:13.676Z,2.80
2023-02-03T02:56:43.567Z,2.60
2023-02-03T02:59:11.134Z,3.58
2023-02-03T03:01:38.033Z,2.90
2023-02-03T03:04:08.911Z,2.88
2023-02-03T03:06:52.370Z,2.70
2023-02-03T03:09:26.046Z,2.30
2023-02-03T03:12:10.708Z,3.35
2023-02-03T03:14:45.369Z,1.90
2023-02-03T03:17:19.955Z,2.17
2023-02-03T03:19:55.914Z,2.58
2023-02-03T03:22:33.140Z,2.13
2023-02-03T03:25:14.758Z,1.85
2023-02-03T03:27:49.700Z,1.45
2023-02-03T03:30:37.226Z,1.27
2023-02-03T03:33:06.250Z,1.42
2023-02-03T03:35:42.934Z,1.45
2023-02-03T03:38:37.599Z,1.30
2023-02-03T03:43:44.991Z,1.60
2023-02-03T03:46:23.659Z,1.65
2023-02-03T03:48:59.981Z,1.50
2023-02-03T03:51:40.055Z,1.75
2023-02-03T03:54:13.056Z,1.08
2023-02-03T03:56:51.674Z,1.30
2023-02-03T03:59:23.270Z,1.30
2023-02-03T04:01:52.301Z,2.05
2023-02-03T04:04:20.799Z,0.95
2023-02-03T04:06:47.641Z,1.13
2023-02-03T04:09:14.451Z,1.33
2023-02-03T04:12:00.106Z,1.10
2023-02-03T04:14:27.622Z,1.40
2023-02-03T04:16:54.402Z,1.95
2023-02-03T04:19:21.235Z,1.52
2023-02-03T04:21:48.024Z,3.33
2023-02-03T04:24:14.853Z,3.92
2023-02-03T04:26:41.840Z,3.38
2023-02-03T04:29:08.640Z,2.53
2023-02-03T04:31:35.457Z,2.30
2023-02-03T04:34:02.384Z,1.48
2023-02-03T04:36:29.193Z,2.95
2023-02-03T04:38:55.947Z,2.35
2023-02-03T04:41:22.913Z,2.30
2023-02-03T04:43:50.547Z,2.58
2023-02-03T04:46:18.973Z,2.10
2023-02-03T04:48:45.956Z,1.75
2023-02-03T04:51:12.749Z,2.22
2023-02-03T04:53:40.010Z,1.70
2023-02-03T04:56:06.990Z,1.90
2023-02-03T04:58:33.857Z,2.10
2023-02-03T05:01:09.882Z,2.42
2023-02-03T05:03:37.251Z,2.55
2023-02-03T05:06:05.473Z,2.95
2023-02-03T05:08:32.593Z,3.78
2023-02-03T05:11:01.863Z,3.47
2023-02-03T05:13:29.087Z,3.22
2023-02-03T05:15:55.872Z,3.55
2023-02-03T05:18:22.722Z,3.58
2023-02-03T05:20:49.528Z,3.95
2023-02-03T05:23:16.315Z,4.03
2023-02-03T05:25:44.595Z,4.25
2023-02-03T05:28:11.549Z,4.35
2023-02-03T05:30:38.486Z,4.35
2023-02-03T05:33:05.299Z,5.05
2023-02-03T05:35:32.044Z,5.35
2023-02-03T05:37:59.541Z,5.60
2023-02-03T05:40:45.895Z,5.30
2023-02-03T05:43:13.118Z,7.45
2023-02-03T05:45:40.101Z,6.40
2023-02-03T05:48:09.064Z,6.80
2023-02-03T05:50:38.681Z,7.00
2023-02-03T05:53:07.072Z,7.13
2023-02-03T05:55:34.889Z,7.07
2023-02-03T05:58:01.881Z,7.93
2023-02-03T06:00:29.546Z,8.10
2023-02-03T06:03:00.964Z,8.27
2023-02-03T06:05:28.526Z,8.63
2023-02-03T06:07:55.595Z,9.52
2023-02-03T06:10:23.130Z,8.63
2023-02-03T06:12:50.420Z,8.93
2023-02-03T06:15:17.836Z,8.50
2023-02-03T06:17:49.652Z,8.55
2023-02-03T06:20:19.281Z,7.97
2023-02-03T06:22:46.228Z,9.32
2023-02-03T06:25:14.377Z,8.55
2023-02-03T06:27:42.178Z,8.68
2023-02-03T06:30:11.377Z,8.40
2023-02-03T06:32:38.524Z,10.45
2023-02-03T06:35:05.669Z,9.52
2023-02-03T06:37:32.601Z,8.80
2023-02-03T06:39:59.403Z,8.57
2023-02-03T06:42:26.126Z,8.30
2023-02-03T06:44:53.603Z,7.95
2023-02-03T06:47:20.414Z,7.88
2023-02-03T06:49:48.012Z,7.80
2023-02-03T06:52:15.574Z,7.75
2023-02-03T06:54:42.982Z,8.30
2023-02-03T06:57:09.861Z,8.25
2023-02-03T06:59:36.865Z,8.68
2023-02-03T07:02:04.317Z,7.82
2023-02-03T07:04:31.139Z,9.18
2023-02-03T07:06:57.979Z,8.02
2023-02-03T07:09:24.801Z,7.28
2023-02-03T07:11:51.577Z,6.07
2023-02-03T07:14:18.502Z,6.88
2023-02-03T07:16:45.284Z,7.70
2023-02-03T07:19:12.134Z,7.57
2023-02-03T07:21:38.839Z,7.47
2023-02-03T07:24:06.168Z,8.52
2023-02-03T07:26:32.921Z,8.30
2023-02-03T07:29:00.856Z,7.00
2023-02-03T07:31:28.091Z,7.30
2023-02-03T07:33:55.091Z,6.30
2023-02-03T07:36:22.028Z,6.15
2023-02-03T07:38:48.968Z,6.97
2023-02-03T07:41:17.943Z,6.78
2023-02-03T07:43:45.250Z,6.07
2023-02-03T07:46:12.477Z,6.47
2023-02-03T07:48:39.853Z,7.50
2023-02-03T07:51:06.873Z,6.43
2023-02-03T07:53:33.695Z,7.03
2023-02-03T07:56:02.655Z,6.65
2023-02-03T07:58:30.476Z,6.22
2023-02-03T08:00:58.650Z,6.40
2023-02-03T08:03:25.793Z,6.15
2023-02-03T08:05:53.542Z,4.63
2023-02-03T08:08:20.365Z,4.32
2023-02-03T08:10:47.181Z,5.18
2023-02-03T08:13:14.549Z,4.63
2023-02-03T08:15:41.338Z,3.90
2023-02-03T08:18:09.708Z,3.63
2023-02-03T08:20:36.606Z,3.70
2023-02-03T08:23:03.450Z,3.95
2023-02-03T08:25:30.259Z,5.40
2023-02-03T08:27:57.314Z,4.20
2023-02-03T08:30:24.363Z,4.75
2023-02-03T08:32:51.169Z,3.75
2023-02-03T08:35:18.201Z,3.22
2023-02-03T08:37:45.082Z,3.97
2023-02-03T08:40:13.208Z,3.95
2023-02-03T08:42:40.004Z,5.50
2023-02-03T08:45:08.154Z,3.25
2023-02-03T08:47:36.849Z,3.58
2023-02-03T08:50:06.831Z,5.07
2023-02-03T08:52:33.620Z,2.92
2023-02-03T08:55:00.454Z,3.28
2023-02-03T08:57:27.262Z,3.63
2023-02-03T08:59:54.955Z,3.15
2023-02-03T09:02:21.707Z,2.95
2023-02-03T09:04:49.466Z,3.22
2023-02-03T09:07:16.868Z,2.67
2023-02-03T09:09:43.702Z,2.72
2023-02-03T09:12:12.291Z,2.50
2023-02-03T09:14:39.557Z,3.63
2023-02-03T09:17:08.290Z,3.17
2023-02-03T09:19:36.541Z,2.85
2023-02-03T09:22:04.190Z,3.72
2023-02-03T09:24:31.144Z,2.00
2023-02-03T09:26:57.928Z,2.58
2023-02-03T09:29:24.707Z,2.50
2023-02-03T09:31:54.198Z,2.70
2023-02-03T09:34:22.039Z,2.40
2023-02-03T09:36:49.279Z,2.75
2023-02-03T09:39:16.093Z,2.13
2023-02-03T09:42:11.048Z,2.38
2023-02-03T09:45:12.927Z,2.17
2023-02-03T09:47:44.183Z,1.67
2023-02-03T09:50:28.438Z,2.20
2023-02-03T09:52:57.506Z,1.83
2023-02-03T09:55:41.134Z,2.78
2023-02-03T09:58:22.997Z,2.58
2023-02-03T10:00:55.995Z,1.75
2023-02-03T10:03:47.934Z,2.87
2023-02-03T10:06:28.117Z,1.98
2023-02-03T10:09:33.364Z,2.88
2023-02-03T10:12:34.487Z,2.72
2023-02-03T10:15:41.665Z,2.15
2023-02-03T10:18:22.955Z,4.18
2023-02-03T10:20:57.015Z,1.60
2023-02-03T10:26:02.906Z,2.53
2023-02-03T10:28:41.575Z,1.70
2023-02-03T10:31:27.782Z,2.05
2023-02-03T10:34:09.815Z,2.17
2023-02-03T10:36:57.157Z,2.15
2023-02-03T10:39:42.521Z,1.73
2023-02-03T10:42:12.008Z,2.08
2023-02-03T10:44:54.175Z,2.95
2023-02-03T10:47:36.025Z,3.25
2023-02-03T10:50:16.857Z,3.10
2023-02-03T10:52:43.883Z,5.60
2023-02-03T10:55:25.321Z,4.20
2023-02-03T10:57:54.129Z,3.83
2023-02-03T11:00:34.425Z,3.92
2023-02-03T11:03:25.470Z,6.82
2023-02-03T11:06:05.754Z,3.70
2023-02-03T11:08:34.773Z,4.75
2023-02-03T11:11:14.552Z,3.83
2023-02-03T11:13:42.071Z,5.25
2023-02-03T11:16:16.508Z,8.50
2023-02-03T11:19:00.003Z,4.60
2023-02-03T11:21:39.034Z,6.18
2023-02-03T11:24:19.256Z,9.20
2023-02-03T11:27:03.148Z,4.53
2023-02-03T11:29:34.463Z,9.38
2023-02-03T11:32:41.527Z,9.75
2023-02-03T11:35:29.514Z,6.28
2023-02-03T11:38:00.137Z,6.32
2023-02-03T11:40:37.008Z,8.52
2023-02-03T11:43:16.069Z,10.30
2023-02-03T11:45:49.169Z,8.98
2023-02-03T11:48:24.853Z,9.73
2023-02-03T11:51:22.018Z,7.72
2023-02-03T11:54:20.171Z,9.68
2023-02-03T11:57:41.105Z,9.27
2023-02-03T12:00:56.094Z,12.70
2023-02-03T12:03:46.854Z,9.07
2023-02-03T12:07:00.592Z,12.40
2023-02-03T12:09:51.687Z,13.95
2023-02-03T12:12:43.097Z,14.18
2023-02-03T12:15:40.271Z,12.40
2023-02-03T12:18:33.968Z,14.95
2023-02-03T12:21:45.125Z,16.30
2023-02-03T12:24:31.063Z,15.18
2023-02-03T12:27:27.122Z,13.80
2023-02-03T12:30:22.490Z,15.52
2023-02-03T12:32:57.236Z,19.33
2023-02-03T12:35:38.319Z,15.23
2023-02-03T12:38:36.575Z,16.80
2023-02-03T12:41:14.811Z,19.58
2023-02-03T12:43:50.843Z,24.55
2023-02-03T12:46:37.150Z,22.75
2023-02-03T12:49:19.179Z,18.80
2023-02-03T12:52:14.419Z,16.63
2023-02-03T12:55:03.192Z,21.33
2023-02-03T12:57:48.790Z,19.58
2023-02-03T13:00:28.393Z,10.73
2023-02-03T13:03:15.275Z,6.90
2023-02-03T13:05:54.136Z,7.82
2023-02-03T13:08:32.203Z,5.15
2023-02-03T13:11:23.333Z,7.00
2023-02-03T13:14:12.403Z,5.75
2023-02-03T13:16:48.005Z,6.47
2023-02-03T13:19:26.202Z,8.55
2023-02-03T13:21:53.276Z,9.70
2023-02-03T13:24:25.828Z,9.35
2023-02-03T13:27:17.300Z,10.20
2023-02-03T13:30:08.095Z,8.43
2023-02-03T13:33:03.096Z,15.85
2023-02-03T13:36:02.491Z,11.35
2023-02-03T13:39:03.322Z,13.95
2023-02-03T13:42:23.582Z,12.00
2023-02-03T13:44:58.609Z,13.48
2023-02-03T13:47:30.419Z,9.93
2023-02-03T13:50:07.290Z,8.63
2023-02-03T13:52:47.428Z,11.40
2023-02-03T13:55:43.737Z,11.95
2023-02-03T13:58:31.188Z,13.13
2023-02-03T14:01:04.251Z,12.43
2023-02-03T14:03:30.953Z,12.60
2023-02-03T14:06:01.232Z,13.00
2023-02-03T14:08:28.018Z,11.85
2023-02-03T14:11:35.648Z,13.38
2023-02-03T14:14:08.537Z,19.13
2023-02-03T14:16:43.733Z,17.75
2023-02-03T14:19:21.890Z,14.68
2023-02-03T14:21:55.462Z,19.00
2023-02-03T14:24:23.303Z,15.98
2023-02-03T14:26:54.201Z,14.65
2023-02-03T14:29:35.609Z,21.67
2023-02-03T14:32:22.744Z,17.27
2023-02-03T14:34:50.859Z,18.50
2023-02-03T14:37:27.800Z,18.23
2023-02-03T14:40:23.446Z,15.80
2023-02-03T14:43:11.913Z,17.33
2023-02-03T14:46:52.231Z,13.77
2023-02-03T14:49:54.793Z,14.75
2023-02-03T14:52:43.892Z,17.58
2023-02-03T14:55:33.444Z,18.88
2023-02-03T14:58:07.182Z,23.52
2023-02-03T15:00:35.568Z,24.45
2023-02-03T15:03:11.154Z,20.23
2023-02-03T15:05:55.865Z,23.13
2023-02-03T15:08:44.330Z,19.70
2023-02-03T15:11:31.100Z,16.05
2023-02-03T15:14:19.758Z,20.95
2023-02-03T15:16:54.123Z,24.52
2023-02-03T15:19:27.062Z,20.27
2023-02-03T15:21:54.224Z,20.10
2023-02-03T15:24:23.934Z,21.80
2023-02-03T15:26:54.806Z,20.83
2023-02-03T15:29:33.917Z,20.10
2023-02-03T15:32:09.189Z,20.60
2023-02-03T15:34:43.285Z,16.85
2023-02-03T15:37:45.240Z,16.88
2023-02-03T15:40:26.075Z,20.60
2023-02-03T15:43:14.108Z,17.80
2023-02-03T15:46:30.599Z,17.08
2023-02-03T15:49:16.592Z,13.43
2023-02-03T15:52:04.973Z,14.43
2023-02-03T15:54:45.795Z,10.60
2023-02-03T15:57:30.636Z,14.65
2023-02-03T16:00:01.505Z,15.68
2023-02-03T16:02:40.962Z,14.77
2023-02-03T16:05:27.687Z,13.70
2023-02-03T16:07:55.104Z,16.95
2023-02-03T16:10:34.398Z,15.15
2023-02-03T16:13:25.476Z,11.00
2023-02-03T16:16:28.542Z,15.70
2023-02-03T16:19:04.009Z,18.20
2023-02-03T16:21:50.463Z,15.43
2023-02-03T16:24:32.512Z,17.40
2023-02-03T16:27:26.674Z,16.73
2023-02-03T16:30:33.864Z,15.10
2023-02-03T16:33:33.896Z,19.90
2023-02-03T16:36:31.936Z,15.98
2023-02-03T16:39:25.481Z,21.15
2023-02-03T16:42:11.033Z,10.57
2023-02-03T16:44:56.414Z,20.02
2023-02-03T16:47:50.887Z,25.02
